sensor_id;sensor_type;location;lat;lon;timestamp;P1;durP1;ratioP1;P2;durP2;ratioP2
18200;SDS011;9226;47.858;9.594;2023-08-30T00:00:43;23.37;;;10.23;;
18200;SDS011;9226;47.858;9.594;2023-08-30T00:03:10;22.93;;;10.97;;
18200;SDS011;9226;47.858;9.594;2023-08-30T00:05:38;23.60;;;11.20;;
18200;SDS011;9226;47.858;9.594;2023-08-30T00:08:04;22.90;;;10.73;;
18200;SDS011;9226;47.858;9.594;2023-08-30T00:10:30;21.93;;;10.87;;
18200;SDS011;9226;47.858;9.594;2023-08-30T00:12:55;20.27;;;9.67;;
18200;SDS011;9226;47.858;9.594;2023-08-30T00:15:20;21.43;;;10.47;;
18200;SDS011;9226;47.858;9.594;2023-08-30T00:17:46;22.53;;;10.70;;
18200;SDS011;9226;47.858;9.594;2023-08-30T00:20:11;21.20;;;9.90;;
18200;SDS011;9226;47.858;9.594;2023-08-30T00:22:37;22.30;;;10.17;;
18200;SDS011;9226;47.858;9.594;2023-08-30T00:25:02;17.37;;;9.20;;
18200;SDS011;9226;47.858;9.594;2023-08-30T00:27:28;18.93;;;10.00;;
18200;SDS011;9226;47.858;9.594;2023-08-30T00:29:53;22.47;;;10.00;;
18200;SDS011;9226;47.858;9.594;2023-08-30T00:32:18;17.37;;;8.83;;
18200;SDS011;9226;47.858;9.594;2023-08-30T00:34:44;18.10;;;8.53;;
18200;SDS011;9226;47.858;9.594;2023-08-30T00:37:09;16.00;;;7.67;;
18200;SDS011;9226;47.858;9.594;2023-08-30T00:39:38;15.80;;;8.10;;
18200;SDS011;9226;47.858;9.594;2023-08-30T00:42:04;14.53;;;8.57;;
18200;SDS011;9226;47.858;9.594;2023-08-30T00:44:32;16.00;;;7.83;;
18200;SDS011;9226;47.858;9.594;2023-08-30T00:46:58;12.93;;;7.03;;
18200;SDS011;9226;47.858;9.594;2023-08-30T00:49:25;14.90;;;6.80;;
18200;SDS011;9226;47.858;9.594;2023-08-30T00:51:50;12.07;;;6.40;;
18200;SDS011;9226;47.858;9.594;2023-08-30T00:54:16;11.43;;;6.60;;
18200;SDS011;9226;47.858;9.594;2023-08-30T00:56:42;12.63;;;6.50;;
18200;SDS011;9226;47.858;9.594;2023-08-30T00:59:08;13.90;;;6.23;;
18200;SDS011;9226;47.858;9.594;2023-08-30T01:01:34;11.60;;;6.37;;
18200;SDS011;9226;47.858;9.594;2023-08-30T01:03:59;11.43;;;6.50;;
18200;SDS011;9226;47.858;9.594;2023-08-30T01:06:25;11.57;;;6.63;;
18200;SDS011;9226;47.858;9.594;2023-08-30T01:08:51;13.57;;;6.60;;
18200;SDS011;9226;47.858;9.594;2023-08-30T01:11:28;12.50;;;7.33;;
18200;SDS011;9226;47.858;9.594;2023-08-30T01:13:59;14.73;;;6.37;;
18200;SDS011;9226;47.858;9.594;2023-08-30T01:16:29;12.93;;;6.13;;
18200;SDS011;9226;47.858;9.594;2023-08-30T01:18:56;14.37;;;6.60;;
18200;SDS011;9226;47.858;9.594;2023-08-30T01:21:29;10.60;;;6.00;;
18200;SDS011;9226;47.858;9.594;2023-08-30T01:24:00;11.43;;;6.13;;
18200;SDS011;9226;47.858;9.594;2023-08-30T01:29:28;10.00;;;5.70;;
18200;SDS011;9226;47.858;9.594;2023-08-30T01:31:56;11.60;;;5.43;;
18200;SDS011;9226;47.858;9.594;2023-08-30T01:34:22;11.80;;;6.20;;
18200;SDS011;9226;47.858;9.594;2023-08-30T01:36:48;11.47;;;6.03;;
18200;SDS011;9226;47.858;9.594;2023-08-30T01:39:14;11.07;;;6.20;;
18200;SDS011;9226;47.858;9.594;2023-08-30T01:41:41;9.70;;;5.47;;
18200;SDS011;9226;47.858;9.594;2023-08-30T01:44:07;11.60;;;6.60;;
18200;SDS011;9226;47.858;9.594;2023-08-30T01:46:34;10.47;;;6.03;;
18200;SDS011;9226;47.858;9.594;2023-08-30T01:49:01;11.50;;;6.17;;
18200;SDS011;9226;47.858;9.594;2023-08-30T01:51:29;9.43;;;5.63;;
18200;SDS011;9226;47.858;9.594;2023-08-30T01:53:57;10.20;;;5.13;;
18200;SDS011;9226;47.858;9.594;2023-08-30T01:56:24;9.80;;;5.77;;
18200;SDS011;9226;47.858;9.594;2023-08-30T01:58:50;11.80;;;5.97;;
18200;SDS011;9226;47.858;9.594;2023-08-30T02:01:15;11.60;;;6.37;;
18200;SDS011;9226;47.858;9.594;2023-08-30T02:03:44;10.37;;;5.90;;
18200;SDS011;9226;47.858;9.594;2023-08-30T02:06:13;11.93;;;6.17;;
18200;SDS011;9226;47.858;9.594;2023-08-30T02:09:26;12.53;;;6.40;;
18200;SDS011;9226;47.858;9.594;2023-08-30T02:11:38;11.77;;;6.60;;
18200;SDS011;9226;47.858;9.594;2023-08-30T02:14:05;12.17;;;7.20;;
18200;SDS011;9226;47.858;9.594;2023-08-30T02:16:36;11.50;;;5.80;;
18200;SDS011;9226;47.858;9.594;2023-08-30T02:19:03;11.47;;;5.50;;
18200;SDS011;9226;47.858;9.594;2023-08-30T02:21:30;13.50;;;6.43;;
18200;SDS011;9226;47.858;9.594;2023-08-30T02:23:55;12.57;;;6.40;;
18200;SDS011;9226;47.858;9.594;2023-08-30T02:26:20;12.17;;;6.57;;
18200;SDS011;9226;47.858;9.594;2023-08-30T02:28:46;11.47;;;6.47;;
18200;SDS011;9226;47.858;9.594;2023-08-30T02:31:12;12.23;;;6.10;;
18200;SDS011;9226;47.858;9.594;2023-08-30T02:33:37;14.67;;;6.70;;
18200;SDS011;9226;47.858;9.594;2023-08-30T02:36:03;15.77;;;6.80;;
18200;SDS011;9226;47.858;9.594;2023-08-30T02:38:29;10.03;;;6.47;;
18200;SDS011;9226;47.858;9.594;2023-08-30T02:40:54;12.60;;;6.73;;
18200;SDS011;9226;47.858;9.594;2023-08-30T02:43:19;13.63;;;6.93;;
18200;SDS011;9226;47.858;9.594;2023-08-30T02:45:45;12.33;;;6.43;;
18200;SDS011;9226;47.858;9.594;2023-08-30T02:48:10;14.23;;;6.40;;
18200;SDS011;9226;47.858;9.594;2023-08-30T02:50:36;11.63;;;7.00;;
18200;SDS011;9226;47.858;9.594;2023-08-30T02:53:01;12.07;;;6.67;;
18200;SDS011;9226;47.858;9.594;2023-08-30T02:55:27;13.10;;;6.57;;
18200;SDS011;9226;47.858;9.594;2023-08-30T02:57:52;12.57;;;7.40;;
18200;SDS011;9226;47.858;9.594;2023-08-30T03:00:18;14.63;;;7.40;;
18200;SDS011;9226;47.858;9.594;2023-08-30T03:02:43;14.43;;;7.70;;
18200;SDS011;9226;47.858;9.594;2023-08-30T03:05:08;15.57;;;8.00;;
18200;SDS011;9226;47.858;9.594;2023-08-30T03:07:34;13.83;;;7.53;;
18200;SDS011;9226;47.858;9.594;2023-08-30T03:09:59;14.83;;;7.60;;
18200;SDS011;9226;47.858;9.594;2023-08-30T03:12:25;14.30;;;7.80;;
18200;SDS011;9226;47.858;9.594;2023-08-30T03:14:50;13.53;;;7.40;;
18200;SDS011;9226;47.858;9.594;2023-08-30T03:17:16;13.73;;;6.90;;
18200;SDS011;9226;47.858;9.594;2023-08-30T03:19:41;14.30;;;6.63;;
18200;SDS011;9226;47.858;9.594;2023-08-30T03:22:07;11.77;;;6.70;;
18200;SDS011;9226;47.858;9.594;2023-08-30T03:24:32;13.03;;;6.63;;
18200;SDS011;9226;47.858;9.594;2023-08-30T03:26:57;13.40;;;6.43;;
18200;SDS011;9226;47.858;9.594;2023-08-30T03:29:24;12.07;;;6.53;;
18200;SDS011;9226;47.858;9.594;2023-08-30T03:31:50;89.13;;;8.50;;
18200;SDS011;9226;47.858;9.594;2023-08-30T03:34:15;11.37;;;6.53;;
18200;SDS011;9226;47.858;9.594;2023-08-30T03:36:41;15.13;;;6.80;;
18200;SDS011;9226;47.858;9.594;2023-08-30T03:39:09;104.17;;;9.77;;
18200;SDS011;9226;47.858;9.594;2023-08-30T03:41:34;57.87;;;8.20;;
18200;SDS011;9226;47.858;9.594;2023-08-30T03:44:00;12.80;;;6.83;;
18200;SDS011;9226;47.858;9.594;2023-08-30T03:46:25;19.53;;;7.73;;
18200;SDS011;9226;47.858;9.594;2023-08-30T03:48:50;17.97;;;7.00;;
18200;SDS011;9226;47.858;9.594;2023-08-30T03:51:17;19.97;;;7.90;;
18200;SDS011;9226;47.858;9.594;2023-08-30T03:53:42;15.77;;;7.90;;
18200;SDS011;9226;47.858;9.594;2023-08-30T03:56:07;14.67;;;7.80;;
18200;SDS011;9226;47.858;9.594;2023-08-30T03:58:33;14.47;;;7.27;;
18200;SDS011;9226;47.858;9.594;2023-08-30T04:00:58;15.40;;;7.37;;
18200;SDS011;9226;47.858;9.594;2023-08-30T04:03:24;15.50;;;7.23;;
18200;SDS011;9226;47.858;9.594;2023-08-30T04:05:54;15.53;;;7.37;;
18200;SDS011;9226;47.858;9.594;2023-08-30T04:08:22;13.83;;;7.20;;
18200;SDS011;9226;47.858;9.594;2023-08-30T04:10:51;11.60;;;6.63;;
18200;SDS011;9226;47.858;9.594;2023-08-30T04:13:18;12.60;;;6.33;;
18200;SDS011;9226;47.858;9.594;2023-08-30T04:15:43;13.93;;;7.47;;
18200;SDS011;9226;47.858;9.594;2023-08-30T04:18:09;11.70;;;6.13;;
18200;SDS011;9226;47.858;9.594;2023-08-30T04:20:34;16.90;;;6.97;;
18200;SDS011;9226;47.858;9.594;2023-08-30T04:23:00;13.47;;;7.37;;
18200;SDS011;9226;47.858;9.594;2023-08-30T04:25:29;13.27;;;7.00;;
18200;SDS011;9226;47.858;9.594;2023-08-30T04:27:55;11.67;;;6.53;;
18200;SDS011;9226;47.858;9.594;2023-08-30T04:30:21;12.40;;;7.07;;
18200;SDS011;9226;47.858;9.594;2023-08-30T04:32:47;15.63;;;6.53;;
18200;SDS011;9226;47.858;9.594;2023-08-30T04:35:12;16.87;;;7.57;;
18200;SDS011;9226;47.858;9.594;2023-08-30T04:37:37;14.57;;;7.60;;
18200;SDS011;9226;47.858;9.594;2023-08-30T04:40:05;13.47;;;6.90;;
18200;SDS011;9226;47.858;9.594;2023-08-30T04:42:32;15.03;;;7.53;;
18200;SDS011;9226;47.858;9.594;2023-08-30T04:44:57;14.67;;;7.17;;
18200;SDS011;9226;47.858;9.594;2023-08-30T04:47:25;14.20;;;6.70;;
18200;SDS011;9226;47.858;9.594;2023-08-30T04:49:51;12.83;;;7.13;;
18200;SDS011;9226;47.858;9.594;2023-08-30T04:52:17;12.63;;;7.37;;
18200;SDS011;9226;47.858;9.594;2023-08-30T04:54:42;12.10;;;6.83;;
18200;SDS011;9226;47.858;9.594;2023-08-30T04:57:08;14.57;;;7.17;;
18200;SDS011;9226;47.858;9.594;2023-08-30T04:59:33;12.77;;;6.93;;
18200;SDS011;9226;47.858;9.594;2023-08-30T05:01:59;12.20;;;7.03;;
18200;SDS011;9226;47.858;9.594;2023-08-30T05:04:24;15.00;;;6.17;;
18200;SDS011;9226;47.858;9.594;2023-08-30T05:06:50;13.87;;;6.33;;
18200;SDS011;9226;47.858;9.594;2023-08-30T05:09:15;13.13;;;7.03;;
18200;SDS011;9226;47.858;9.594;2023-08-30T05:11:40;14.33;;;7.20;;
18200;SDS011;9226;47.858;9.594;2023-08-30T05:14:06;14.57;;;7.43;;
18200;SDS011;9226;47.858;9.594;2023-08-30T05:16:32;15.73;;;8.13;;
18200;SDS011;9226;47.858;9.594;2023-08-30T05:18:57;17.60;;;8.60;;
18200;SDS011;9226;47.858;9.594;2023-08-30T05:21:22;14.07;;;7.70;;
18200;SDS011;9226;47.858;9.594;2023-08-30T05:23:48;11.93;;;6.93;;
18200;SDS011;9226;47.858;9.594;2023-08-30T05:26:13;13.63;;;7.87;;
18200;SDS011;9226;47.858;9.594;2023-08-30T05:28:38;13.87;;;7.40;;
18200;SDS011;9226;47.858;9.594;2023-08-30T05:31:04;14.67;;;8.13;;
18200;SDS011;9226;47.858;9.594;2023-08-30T05:33:31;13.40;;;6.77;;
18200;SDS011;9226;47.858;9.594;2023-08-30T05:35:56;12.10;;;6.67;;
18200;SDS011;9226;47.858;9.594;2023-08-30T05:38:22;12.97;;;6.80;;
18200;SDS011;9226;47.858;9.594;2023-08-30T05:40:47;12.30;;;6.37;;
18200;SDS011;9226;47.858;9.594;2023-08-30T05:43:12;14.33;;;7.40;;
18200;SDS011;9226;47.858;9.594;2023-08-30T05:45:38;12.63;;;6.53;;
18200;SDS011;9226;47.858;9.594;2023-08-30T05:48:04;17.60;;;7.20;;
18200;SDS011;9226;47.858;9.594;2023-08-30T05:50:30;13.03;;;6.77;;
18200;SDS011;9226;47.858;9.594;2023-08-30T05:52:55;14.10;;;7.03;;
18200;SDS011;9226;47.858;9.594;2023-08-30T05:55:21;12.93;;;6.80;;
18200;SDS011;9226;47.858;9.594;2023-08-30T05:57:46;12.63;;;6.97;;
18200;SDS011;9226;47.858;9.594;2023-08-30T06:00:12;10.13;;;6.33;;
18200;SDS011;9226;47.858;9.594;2023-08-30T06:02:38;13.27;;;7.07;;
18200;SDS011;9226;47.858;9.594;2023-08-30T06:05:04;11.97;;;7.13;;
18200;SDS011;9226;47.858;9.594;2023-08-30T06:07:29;12.23;;;6.53;;
18200;SDS011;9226;47.858;9.594;2023-08-30T06:09:55;11.50;;;6.40;;
18200;SDS011;9226;47.858;9.594;2023-08-30T06:12:20;12.00;;;6.37;;
18200;SDS011;9226;47.858;9.594;2023-08-30T06:14:46;13.27;;;6.43;;
18200;SDS011;9226;47.858;9.594;2023-08-30T06:17:16;10.73;;;6.00;;
18200;SDS011;9226;47.858;9.594;2023-08-30T06:19:42;10.07;;;6.07;;
18200;SDS011;9226;47.858;9.594;2023-08-30T06:22:08;10.90;;;5.80;;
18200;SDS011;9226;47.858;9.594;2023-08-30T06:24:33;12.33;;;5.90;;
18200;SDS011;9226;47.858;9.594;2023-08-30T06:26:59;10.03;;;5.90;;
18200;SDS011;9226;47.858;9.594;2023-08-30T06:29:24;11.13;;;6.27;;
18200;SDS011;9226;47.858;9.594;2023-08-30T06:31:50;10.13;;;5.90;;
18200;SDS011;9226;47.858;9.594;2023-08-30T06:34:16;11.30;;;6.37;;
18200;SDS011;9226;47.858;9.594;2023-08-30T06:36:41;11.63;;;6.90;;
18200;SDS011;9226;47.858;9.594;2023-08-30T06:39:07;10.57;;;6.10;;
18200;SDS011;9226;47.858;9.594;2023-08-30T06:41:32;10.70;;;6.30;;
18200;SDS011;9226;47.858;9.594;2023-08-30T06:43:57;11.30;;;6.57;;
18200;SDS011;9226;47.858;9.594;2023-08-30T06:46:23;11.17;;;6.23;;
18200;SDS011;9226;47.858;9.594;2023-08-30T06:48:48;10.10;;;5.80;;
18200;SDS011;9226;47.858;9.594;2023-08-30T06:51:14;10.47;;;6.20;;
18200;SDS011;9226;47.858;9.594;2023-08-30T06:53:39;10.30;;;5.93;;
18200;SDS011;9226;47.858;9.594;2023-08-30T06:56:05;11.47;;;6.40;;
18200;SDS011;9226;47.858;9.594;2023-08-30T06:58:30;11.50;;;6.63;;
18200;SDS011;9226;47.858;9.594;2023-08-30T07:00:56;10.07;;;5.63;;
18200;SDS011;9226;47.858;9.594;2023-08-30T07:03:22;10.17;;;5.67;;
18200;SDS011;9226;47.858;9.594;2023-08-30T07:05:48;10.10;;;5.57;;
18200;SDS011;9226;47.858;9.594;2023-08-30T07:08:16;9.23;;;5.70;;
18200;SDS011;9226;47.858;9.594;2023-08-30T07:10:41;10.10;;;5.93;;
18200;SDS011;9226;47.858;9.594;2023-08-30T07:13:07;9.73;;;5.83;;
18200;SDS011;9226;47.858;9.594;2023-08-30T07:15:38;12.93;;;5.90;;
18200;SDS011;9226;47.858;9.594;2023-08-30T07:18:05;9.37;;;5.30;;
18200;SDS011;9226;47.858;9.594;2023-08-30T07:20:32;7.73;;;5.13;;
18200;SDS011;9226;47.858;9.594;2023-08-30T07:22:57;9.27;;;5.20;;
18200;SDS011;9226;47.858;9.594;2023-08-30T07:25:22;7.43;;;4.73;;
18200;SDS011;9226;47.858;9.594;2023-08-30T07:27:49;8.43;;;4.50;;
18200;SDS011;9226;47.858;9.594;2023-08-30T07:30:14;8.03;;;4.53;;
18200;SDS011;9226;47.858;9.594;2023-08-30T07:32:40;8.37;;;4.93;;
18200;SDS011;9226;47.858;9.594;2023-08-30T07:35:05;8.00;;;4.93;;
18200;SDS011;9226;47.858;9.594;2023-08-30T07:37:31;7.13;;;5.00;;
18200;SDS011;9226;47.858;9.594;2023-08-30T07:39:56;9.30;;;5.13;;
18200;SDS011;9226;47.858;9.594;2023-08-30T07:42:22;8.80;;;4.63;;
18200;SDS011;9226;47.858;9.594;2023-08-30T07:44:47;6.47;;;4.57;;
18200;SDS011;9226;47.858;9.594;2023-08-30T07:47:13;6.63;;;4.30;;
18200;SDS011;9226;47.858;9.594;2023-08-30T07:49:38;6.07;;;4.00;;
18200;SDS011;9226;47.858;9.594;2023-08-30T07:52:03;6.13;;;3.70;;
18200;SDS011;9226;47.858;9.594;2023-08-30T07:54:29;5.27;;;3.90;;
18200;SDS011;9226;47.858;9.594;2023-08-30T07:56:55;5.43;;;3.43;;
18200;SDS011;9226;47.858;9.594;2023-08-30T07:59:21;9.63;;;4.00;;
18200;SDS011;9226;47.858;9.594;2023-08-30T08:01:46;9.90;;;4.57;;
18200;SDS011;9226;47.858;9.594;2023-08-30T08:04:12;5.93;;;3.63;;
18200;SDS011;9226;47.858;9.594;2023-08-30T08:06:37;6.07;;;4.33;;
18200;SDS011;9226;47.858;9.594;2023-08-30T08:09:02;5.67;;;3.80;;
18200;SDS011;9226;47.858;9.594;2023-08-30T08:11:28;4.80;;;3.80;;
18200;SDS011;9226;47.858;9.594;2023-08-30T08:13:54;5.20;;;3.27;;
18200;SDS011;9226;47.858;9.594;2023-08-30T08:16:19;4.60;;;3.57;;
18200;SDS011;9226;47.858;9.594;2023-08-30T08:18:45;4.43;;;3.27;;
18200;SDS011;9226;47.858;9.594;2023-08-30T08:21:10;4.27;;;3.17;;
18200;SDS011;9226;47.858;9.594;2023-08-30T08:23:36;6.33;;;3.63;;
18200;SDS011;9226;47.858;9.594;2023-08-30T08:26:01;5.80;;;3.53;;
18200;SDS011;9226;47.858;9.594;2023-08-30T08:28:27;5.47;;;3.10;;
18200;SDS011;9226;47.858;9.594;2023-08-30T08:30:53;4.43;;;3.40;;
18200;SDS011;9226;47.858;9.594;2023-08-30T08:33:19;3.90;;;2.73;;
18200;SDS011;9226;47.858;9.594;2023-08-30T08:35:47;5.00;;;3.07;;
18200;SDS011;9226;47.858;9.594;2023-08-30T08:38:13;4.83;;;3.03;;
18200;SDS011;9226;47.858;9.594;2023-08-30T08:40:39;3.83;;;2.93;;
18200;SDS011;9226;47.858;9.594;2023-08-30T08:43:05;4.03;;;3.20;;
18200;SDS011;9226;47.858;9.594;2023-08-30T08:45:32;4.27;;;3.00;;
18200;SDS011;9226;47.858;9.594;2023-08-30T08:48:01;3.10;;;2.57;;
18200;SDS011;9226;47.858;9.594;2023-08-30T08:50:29;3.97;;;2.27;;
18200;SDS011;9226;47.858;9.594;2023-08-30T08:52:55;3.83;;;2.80;;
18200;SDS011;9226;47.858;9.594;2023-08-30T08:55:21;3.90;;;2.67;;
18200;SDS011;9226;47.858;9.594;2023-08-30T08:57:48;8.13;;;2.77;;
18200;SDS011;9226;47.858;9.594;2023-08-30T09:00:14;3.03;;;2.60;;
18200;SDS011;9226;47.858;9.594;2023-08-30T09:02:41;3.60;;;2.27;;
18200;SDS011;9226;47.858;9.594;2023-08-30T09:05:11;3.37;;;2.37;;
18200;SDS011;9226;47.858;9.594;2023-08-30T09:07:37;2.77;;;2.33;;
18200;SDS011;9226;47.858;9.594;2023-08-30T09:10:04;4.20;;;2.60;;
18200;SDS011;9226;47.858;9.594;2023-08-30T09:12:33;4.83;;;2.67;;
18200;SDS011;9226;47.858;9.594;2023-08-30T09:15:00;3.90;;;2.10;;
18200;SDS011;9226;47.858;9.594;2023-08-30T09:17:35;3.03;;;2.50;;
18200;SDS011;9226;47.858;9.594;2023-08-30T09:20:09;3.37;;;2.70;;
18200;SDS011;9226;47.858;9.594;2023-08-30T09:22:44;3.20;;;2.33;;
18200;SDS011;9226;47.858;9.594;2023-08-30T09:25:10;3.40;;;2.70;;
18200;SDS011;9226;47.858;9.594;2023-08-30T09:27:37;2.50;;;2.23;;
18200;SDS011;9226;47.858;9.594;2023-08-30T09:30:07;5.10;;;2.50;;
18200;SDS011;9226;47.858;9.594;2023-08-30T09:32:39;6.17;;;2.57;;
18200;SDS011;9226;47.858;9.594;2023-08-30T09:35:06;5.50;;;2.60;;
18200;SDS011;9226;47.858;9.594;2023-08-30T09:37:32;3.60;;;2.70;;
18200;SDS011;9226;47.858;9.594;2023-08-30T09:39:58;3.73;;;2.60;;
18200;SDS011;9226;47.858;9.594;2023-08-30T09:42:23;4.27;;;2.70;;
18200;SDS011;9226;47.858;9.594;2023-08-30T09:44:49;11.67;;;2.37;;
18200;SDS011;9226;47.858;9.594;2023-08-30T09:47:15;3.77;;;2.33;;
18200;SDS011;9226;47.858;9.594;2023-08-30T09:49:44;4.83;;;2.80;;
18200;SDS011;9226;47.858;9.594;2023-08-30T09:52:12;2.77;;;2.20;;
18200;SDS011;9226;47.858;9.594;2023-08-30T09:54:40;3.73;;;2.40;;
18200;SDS011;9226;47.858;9.594;2023-08-30T09:57:09;3.60;;;2.27;;
18200;SDS011;9226;47.858;9.594;2023-08-30T09:59:39;2.63;;;2.30;;
18200;SDS011;9226;47.858;9.594;2023-08-30T10:02:05;3.30;;;2.20;;
18200;SDS011;9226;47.858;9.594;2023-08-30T10:04:32;4.60;;;2.30;;
18200;SDS011;9226;47.858;9.594;2023-08-30T10:07:02;2.30;;;1.77;;
18200;SDS011;9226;47.858;9.594;2023-08-30T10:09:29;3.17;;;2.00;;
18200;SDS011;9226;47.858;9.594;2023-08-30T10:11:55;3.03;;;2.20;;
18200;SDS011;9226;47.858;9.594;2023-08-30T10:14:23;3.30;;;2.40;;
18200;SDS011;9226;47.858;9.594;2023-08-30T10:16:48;4.23;;;2.30;;
18200;SDS011;9226;47.858;9.594;2023-08-30T10:19:26;2.40;;;2.13;;
18200;SDS011;9226;47.858;9.594;2023-08-30T10:24:25;2.90;;;2.23;;
18200;SDS011;9226;47.858;9.594;2023-08-30T10:26:52;2.73;;;2.13;;
18200;SDS011;9226;47.858;9.594;2023-08-30T10:29:20;5.43;;;2.60;;
18200;SDS011;9226;47.858;9.594;2023-08-30T10:31:46;2.47;;;2.10;;
18200;SDS011;9226;47.858;9.594;2023-08-30T10:34:16;3.80;;;2.50;;
18200;SDS011;9226;47.858;9.594;2023-08-30T10:36:45;2.77;;;2.30;;
18200;SDS011;9226;47.858;9.594;2023-08-30T10:39:26;2.77;;;2.30;;
18200;SDS011;9226;47.858;9.594;2023-08-30T10:41:58;2.80;;;2.20;;
18200;SDS011;9226;47.858;9.594;2023-08-30T10:44:24;3.50;;;2.27;;
18200;SDS011;9226;47.858;9.594;2023-08-30T10:46:53;3.30;;;2.30;;
18200;SDS011;9226;47.858;9.594;2023-08-30T10:49:19;2.63;;;2.00;;
18200;SDS011;9226;47.858;9.594;2023-08-30T10:51:45;4.37;;;2.10;;
18200;SDS011;9226;47.858;9.594;2023-08-30T10:54:19;3.00;;;2.27;;
18200;SDS011;9226;47.858;9.594;2023-08-30T10:59:20;3.40;;;2.17;;
18200;SDS011;9226;47.858;9.594;2023-08-30T11:01:46;3.50;;;2.00;;
18200;SDS011;9226;47.858;9.594;2023-08-30T11:04:14;3.40;;;1.97;;
18200;SDS011;9226;47.858;9.594;2023-08-30T11:06:44;2.73;;;2.10;;
18200;SDS011;9226;47.858;9.594;2023-08-30T11:09:21;2.33;;;1.93;;
18200;SDS011;9226;47.858;9.594;2023-08-30T11:11:48;2.20;;;1.80;;
18200;SDS011;9226;47.858;9.594;2023-08-30T11:14:16;2.20;;;1.70;;
18200;SDS011;9226;47.858;9.594;2023-08-30T11:16:42;2.37;;;1.60;;
18200;SDS011;9226;47.858;9.594;2023-08-30T11:19:09;2.10;;;1.57;;
18200;SDS011;9226;47.858;9.594;2023-08-30T11:21:39;2.50;;;1.80;;
18200;SDS011;9226;47.858;9.594;2023-08-30T11:24:07;2.30;;;1.63;;
18200;SDS011;9226;47.858;9.594;2023-08-30T11:26:33;2.30;;;1.80;;
18200;SDS011;9226;47.858;9.594;2023-08-30T11:29:08;4.53;;;1.80;;
18200;SDS011;9226;47.858;9.594;2023-08-30T11:31:33;2.17;;;1.90;;
18200;SDS011;9226;47.858;9.594;2023-08-30T11:33:59;2.30;;;1.70;;
18200;SDS011;9226;47.858;9.594;2023-08-30T11:36:26;3.10;;;1.80;;
18200;SDS011;9226;47.858;9.594;2023-08-30T11:38:53;2.20;;;1.60;;
18200;SDS011;9226;47.858;9.594;2023-08-30T11:41:22;2.13;;;1.80;;
18200;SDS011;9226;47.858;9.594;2023-08-30T11:43:48;2.57;;;1.90;;
18200;SDS011;9226;47.858;9.594;2023-08-30T11:46:14;2.33;;;1.90;;
18200;SDS011;9226;47.858;9.594;2023-08-30T11:48:40;2.73;;;1.73;;
18200;SDS011;9226;47.858;9.594;2023-08-30T11:51:06;2.70;;;1.77;;
18200;SDS011;9226;47.858;9.594;2023-08-30T11:53:32;1.93;;;1.70;;
18200;SDS011;9226;47.858;9.594;2023-08-30T11:55:59;2.40;;;1.43;;
18200;SDS011;9226;47.858;9.594;2023-08-30T11:58:24;1.83;;;1.67;;
18200;SDS011;9226;47.858;9.594;2023-08-30T12:00:50;3.13;;;2.23;;
18200;SDS011;9226;47.858;9.594;2023-08-30T12:03:16;2.80;;;1.77;;
18200;SDS011;9226;47.858;9.594;2023-08-30T12:05:45;3.97;;;1.70;;
18200;SDS011;9226;47.858;9.594;2023-08-30T12:08:28;3.83;;;1.63;;
18200;SDS011;9226;47.858;9.594;2023-08-30T12:10:55;4.47;;;1.70;;
18200;SDS011;9226;47.858;9.594;2023-08-30T12:13:43;1.80;;;1.60;;
18200;SDS011;9226;47.858;9.594;2023-08-30T12:16:07;1.77;;;1.47;;
18200;SDS011;9226;47.858;9.594;2023-08-30T12:18:33;2.47;;;1.60;;
18200;SDS011;9226;47.858;9.594;2023-08-30T12:20:59;7.27;;;2.00;;
18200;SDS011;9226;47.858;9.594;2023-08-30T12:23:27;2.00;;;1.50;;
18200;SDS011;9226;47.858;9.594;2023-08-30T12:26:01;4.63;;;1.60;;
18200;SDS011;9226;47.858;9.594;2023-08-30T12:28:31;4.20;;;1.37;;
18200;SDS011;9226;47.858;9.594;2023-08-30T12:30:58;1.70;;;1.47;;
18200;SDS011;9226;47.858;9.594;2023-08-30T12:33:24;2.50;;;1.83;;
18200;SDS011;9226;47.858;9.594;2023-08-30T12:35:56;3.40;;;2.00;;
18200;SDS011;9226;47.858;9.594;2023-08-30T12:38:23;2.37;;;1.77;;
18200;SDS011;9226;47.858;9.594;2023-08-30T12:40:50;4.10;;;1.67;;
18200;SDS011;9226;47.858;9.594;2023-08-30T12:43:17;1.67;;;1.50;;
18200;SDS011;9226;47.858;9.594;2023-08-30T12:45:43;1.70;;;1.50;;
18200;SDS011;9226;47.858;9.594;2023-08-30T12:48:12;4.63;;;1.70;;
18200;SDS011;9226;47.858;9.594;2023-08-30T12:50:40;3.50;;;1.47;;
18200;SDS011;9226;47.858;9.594;2023-08-30T12:53:07;1.83;;;1.40;;
18200;SDS011;9226;47.858;9.594;2023-08-30T12:55:33;2.33;;;1.50;;
18200;SDS011;9226;47.858;9.594;2023-08-30T12:58:04;2.10;;;1.50;;
18200;SDS011;9226;47.858;9.594;2023-08-30T13:00:29;2.03;;;1.53;;
18200;SDS011;9226;47.858;9.594;2023-08-30T13:02:55;1.80;;;1.60;;
18200;SDS011;9226;47.858;9.594;2023-08-30T13:05:21;6.53;;;1.83;;
18200;SDS011;9226;47.858;9.594;2023-08-30T13:07:46;3.17;;;1.47;;
18200;SDS011;9226;47.858;9.594;2023-08-30T13:10:13;3.13;;;1.50;;
18200;SDS011;9226;47.858;9.594;2023-08-30T13:12:39;1.97;;;1.50;;
18200;SDS011;9226;47.858;9.594;2023-08-30T13:15:05;2.50;;;1.43;;
18200;SDS011;9226;47.858;9.594;2023-08-30T13:17:30;1.40;;;1.30;;
18200;SDS011;9226;47.858;9.594;2023-08-30T13:19:56;1.70;;;1.47;;
18200;SDS011;9226;47.858;9.594;2023-08-30T13:22:23;2.97;;;1.73;;
18200;SDS011;9226;47.858;9.594;2023-08-30T13:24:49;2.20;;;1.70;;
18200;SDS011;9226;47.858;9.594;2023-08-30T13:27:14;2.57;;;1.50;;
18200;SDS011;9226;47.858;9.594;2023-08-30T13:29:40;7.10;;;1.57;;
18200;SDS011;9226;47.858;9.594;2023-08-30T13:32:05;2.13;;;1.50;;
18200;SDS011;9226;47.858;9.594;2023-08-30T13:34:31;2.33;;;1.40;;
18200;SDS011;9226;47.858;9.594;2023-08-30T13:36:56;2.27;;;1.20;;
18200;SDS011;9226;47.858;9.594;2023-08-30T13:39:21;1.57;;;1.40;;
18200;SDS011;9226;47.858;9.594;2023-08-30T13:41:47;1.80;;;1.30;;
18200;SDS011;9226;47.858;9.594;2023-08-30T13:44:13;1.40;;;1.30;;
18200;SDS011;9226;47.858;9.594;2023-08-30T13:46:39;3.00;;;1.30;;
18200;SDS011;9226;47.858;9.594;2023-08-30T13:49:05;3.50;;;1.33;;
18200;SDS011;9226;47.858;9.594;2023-08-30T13:51:31;2.67;;;1.40;;
18200;SDS011;9226;47.858;9.594;2023-08-30T13:53:57;2.47;;;1.40;;
18200;SDS011;9226;47.858;9.594;2023-08-30T13:56:22;1.30;;;1.07;;
18200;SDS011;9226;47.858;9.594;2023-08-30T13:58:48;2.33;;;1.40;;
18200;SDS011;9226;47.858;9.594;2023-08-30T14:01:14;2.83;;;1.40;;
18200;SDS011;9226;47.858;9.594;2023-08-30T14:03:40;2.50;;;1.53;;
18200;SDS011;9226;47.858;9.594;2023-08-30T14:06:05;1.93;;;1.27;;
18200;SDS011;9226;47.858;9.594;2023-08-30T14:08:31;3.87;;;1.50;;
18200;SDS011;9226;47.858;9.594;2023-08-30T14:10:57;1.90;;;1.40;;
18200;SDS011;9226;47.858;9.594;2023-08-30T14:13:22;1.70;;;1.30;;
18200;SDS011;9226;47.858;9.594;2023-08-30T14:15:48;3.37;;;1.60;;
18200;SDS011;9226;47.858;9.594;2023-08-30T14:18:14;1.93;;;1.37;;
18200;SDS011;9226;47.858;9.594;2023-08-30T14:20:43;2.50;;;1.50;;
18200;SDS011;9226;47.858;9.594;2023-08-30T14:23:08;2.27;;;1.50;;
18200;SDS011;9226;47.858;9.594;2023-08-30T14:25:34;4.53;;;1.20;;
18200;SDS011;9226;47.858;9.594;2023-08-30T14:28:00;6.97;;;1.40;;
18200;SDS011;9226;47.858;9.594;2023-08-30T14:30:26;2.57;;;1.50;;
18200;SDS011;9226;47.858;9.594;2023-08-30T14:32:52;2.37;;;1.40;;
18200;SDS011;9226;47.858;9.594;2023-08-30T14:35:18;2.00;;;1.53;;
18200;SDS011;9226;47.858;9.594;2023-08-30T14:37:48;1.80;;;1.57;;
18200;SDS011;9226;47.858;9.594;2023-08-30T14:40:14;2.50;;;1.50;;
18200;SDS011;9226;47.858;9.594;2023-08-30T14:42:39;3.67;;;1.50;;
18200;SDS011;9226;47.858;9.594;2023-08-30T14:45:05;2.27;;;1.57;;
18200;SDS011;9226;47.858;9.594;2023-08-30T14:47:34;3.37;;;1.47;;
18200;SDS011;9226;47.858;9.594;2023-08-30T14:50:00;2.20;;;1.67;;
18200;SDS011;9226;47.858;9.594;2023-08-30T14:52:29;2.80;;;1.60;;
18200;SDS011;9226;47.858;9.594;2023-08-30T14:54:54;4.20;;;1.40;;
18200;SDS011;9226;47.858;9.594;2023-08-30T14:57:20;2.40;;;1.40;;
18200;SDS011;9226;47.858;9.594;2023-08-30T14:59:46;2.97;;;1.50;;